createdAt,value
2024-02-13T17:18:57.059Z,81.98
2024-02-13T17:22:01.873Z,81.86
2024-02-13T17:25:35.472Z,81.76
2024-02-13T17:28:42.122Z,81.85
2024-02-13T17:31:46.423Z,81.67
2024-02-13T17:34:52.516Z,81.53
2024-02-13T17:37:56.789Z,81.46
2024-02-13T17:41:01.336Z,81.77
2024-02-13T17:44:05.874Z,81.78
2024-02-13T17:47:10.460Z,82.21
2024-02-13T17:50:16.377Z,82.00
2024-02-13T17:53:23.874Z,82.13
2024-02-13T17:56:28.167Z,82.22
2024-02-13T17:59:32.923Z,82.09
2024-02-13T18:02:37.417Z,82.26
2024-02-13T18:05:44.123Z,82.19
2024-02-13T18:08:48.582Z,82.25
2024-02-13T18:11:56.953Z,82.28
2024-02-13T18:15:02.487Z,82.32
2024-02-13T18:18:10.000Z,82.38
2024-02-13T18:21:15.968Z,82.73
2024-02-13T18:24:22.001Z,82.37
2024-02-13T18:27:26.381Z,82.44
2024-02-13T18:30:31.028Z,82.23
2024-02-13T18:33:35.507Z,82.50
2024-02-13T18:36:47.907Z,82.52
2024-02-13T18:39:53.143Z,81.28
2024-02-13T18:42:57.908Z,81.94
2024-02-13T18:46:02.739Z,82.11
2024-02-13T18:49:10.397Z,81.87
2024-02-13T18:52:16.864Z,81.79
2024-02-13T18:55:22.392Z,81.90
2024-02-13T18:58:30.061Z,81.98
2024-02-13T19:01:34.863Z,82.28
2024-02-13T19:04:39.503Z,81.79
2024-02-13T19:07:45.679Z,82.17
2024-02-13T19:10:50.401Z,81.89
2024-02-13T19:13:55.157Z,82.10
2024-02-13T19:16:59.926Z,82.09
2024-02-13T19:20:11.329Z,81.93
2024-02-13T19:23:22.109Z,81.76
2024-02-13T19:26:26.954Z,81.78
2024-02-13T19:29:31.366Z,82.17
2024-02-13T19:32:36.166Z,81.96
2024-02-13T19:35:40.490Z,81.91
2024-02-13T19:38:46.810Z,81.86
2024-02-13T19:41:54.121Z,81.82
2024-02-13T19:44:59.677Z,81.92
2024-02-13T19:48:04.497Z,82.08
2024-02-13T19:51:09.574Z,81.66
2024-02-13T19:54:16.933Z,82.46
2024-02-13T19:57:21.869Z,82.38
2024-02-13T20:00:26.209Z,82.47
2024-02-13T20:03:30.874Z,82.57
2024-02-13T20:06:35.496Z,82.28
2024-02-13T20:09:42.238Z,82.82
2024-02-13T20:12:46.448Z,82.64
2024-02-13T20:15:51.870Z,82.48
2024-02-13T20:18:59.595Z,82.46
2024-02-13T20:22:04.529Z,83.00
2024-02-13T20:25:13.456Z,83.01
2024-02-13T20:28:18.307Z,82.79
2024-02-13T20:31:24.150Z,82.76
2024-02-13T20:34:30.381Z,82.73
2024-02-13T20:37:35.385Z,82.87
2024-02-13T20:40:42.245Z,83.41
2024-02-13T20:43:46.497Z,83.43
2024-02-13T20:46:51.329Z,83.42
2024-02-13T20:49:55.566Z,83.40
2024-02-13T20:53:00.110Z,83.29
2024-02-13T20:56:06.515Z,83.10
2024-02-13T20:59:11.658Z,83.50
2024-02-13T21:02:15.906Z,83.52
2024-02-13T21:05:23.131Z,83.41
2024-02-13T21:08:27.606Z,83.92
2024-02-13T21:11:34.015Z,83.53
2024-02-13T21:14:38.444Z,83.88
2024-02-13T21:17:44.023Z,83.43
2024-02-13T21:20:58.984Z,83.63
2024-02-13T21:24:02.652Z,83.78
2024-02-13T21:27:08.530Z,83.65
